sensor_id;sensor_type;location;lat;lon;timestamp;P1;durP1;ratioP1;P2;durP2;ratioP2
49610;SDS011;35515;48.766;9.176;2024-03-22T00:01:51;15.07;;;10.23;;
49610;SDS011;35515;48.766;9.176;2024-03-22T00:04:17;15.27;;;11.07;;
49610;SDS011;35515;48.766;9.176;2024-03-22T00:06:45;15.50;;;11.13;;
49610;SDS011;35515;48.766;9.176;2024-03-22T00:09:12;19.67;;;10.75;;
49610;SDS011;35515;48.766;9.176;2024-03-22T00:11:39;17.60;;;11.35;;
49610;SDS011;35515;48.766;9.176;2024-03-22T00:14:06;16.65;;;10.68;;
49610;SDS011;35515;48.766;9.176;2024-03-22T00:16:34;16.42;;;11.95;;
49610;SDS011;35515;48.766;9.176;2024-03-22T00:18:59;15.77;;;10.73;;
49610;SDS011;35515;48.766;9.176;2024-03-22T00:21:26;17.58;;;11.27;;
49610;SDS011;35515;48.766;9.176;2024-03-22T00:23:52;15.50;;;10.05;;
49610;SDS011;35515;48.766;9.176;2024-03-22T00:26:18;19.17;;;11.38;;
49610;SDS011;35515;48.766;9.176;2024-03-22T00:28:44;15.80;;;10.13;;
49610;SDS011;35515;48.766;9.176;2024-03-22T00:31:10;16.38;;;11.63;;
49610;SDS011;35515;48.766;9.176;2024-03-22T00:33:37;18.15;;;10.52;;
49610;SDS011;35515;48.766;9.176;2024-03-22T00:36:04;17.00;;;11.00;;
49610;SDS011;35515;48.766;9.176;2024-03-22T00:38:30;18.17;;;11.20;;
49610;SDS011;35515;48.766;9.176;2024-03-22T00:40:56;16.85;;;10.45;;
49610;SDS011;35515;48.766;9.176;2024-03-22T00:43:22;15.73;;;10.73;;
49610;SDS011;35515;48.766;9.176;2024-03-22T00:45:49;20.42;;;10.48;;
49610;SDS011;35515;48.766;9.176;2024-03-22T00:48:14;15.30;;;10.13;;
49610;SDS011;35515;48.766;9.176;2024-03-22T00:50:42;13.75;;;10.30;;
49610;SDS011;35515;48.766;9.176;2024-03-22T00:53:08;14.98;;;10.43;;
49610;SDS011;35515;48.766;9.176;2024-03-22T00:55:35;15.55;;;10.57;;
49610;SDS011;35515;48.766;9.176;2024-03-22T00:58:00;16.30;;;10.48;;
49610;SDS011;35515;48.766;9.176;2024-03-22T01:00:27;14.23;;;10.05;;
49610;SDS011;35515;48.766;9.176;2024-03-22T01:02:52;13.05;;;9.60;;
49610;SDS011;35515;48.766;9.176;2024-03-22T01:05:19;14.68;;;9.50;;
49610;SDS011;35515;48.766;9.176;2024-03-22T01:07:46;15.25;;;10.38;;
49610;SDS011;35515;48.766;9.176;2024-03-22T01:10:13;14.35;;;10.23;;
49610;SDS011;35515;48.766;9.176;2024-03-22T01:12:39;17.70;;;10.07;;
49610;SDS011;35515;48.766;9.176;2024-03-22T01:15:06;14.43;;;10.20;;
49610;SDS011;35515;48.766;9.176;2024-03-22T01:17:32;13.52;;;9.60;;
49610;SDS011;35515;48.766;9.176;2024-03-22T01:19:59;18.00;;;9.93;;
49610;SDS011;35515;48.766;9.176;2024-03-22T01:22:24;14.30;;;9.88;;
49610;SDS011;35515;48.766;9.176;2024-03-22T01:24:52;18.58;;;10.05;;
49610;SDS011;35515;48.766;9.176;2024-03-22T01:27:18;14.27;;;9.70;;
49610;SDS011;35515;48.766;9.176;2024-03-22T01:29:45;12.60;;;9.85;;
49610;SDS011;35515;48.766;9.176;2024-03-22T01:32:12;13.10;;;9.10;;
49610;SDS011;35515;48.766;9.176;2024-03-22T01:34:38;16.90;;;10.23;;
49610;SDS011;35515;48.766;9.176;2024-03-22T01:37:04;13.85;;;10.38;;
49610;SDS011;35515;48.766;9.176;2024-03-22T01:39:31;16.25;;;10.35;;
49610;SDS011;35515;48.766;9.176;2024-03-22T01:41:58;15.50;;;9.55;;
49610;SDS011;35515;48.766;9.176;2024-03-22T01:44:27;13.15;;;9.50;;
49610;SDS011;35515;48.766;9.176;2024-03-22T01:46:53;12.27;;;9.77;;
49610;SDS011;35515;48.766;9.176;2024-03-22T01:49:19;12.30;;;8.98;;
49610;SDS011;35515;48.766;9.176;2024-03-22T01:51:46;14.57;;;9.05;;
49610;SDS011;35515;48.766;9.176;2024-03-22T01:54:13;14.63;;;9.13;;
49610;SDS011;35515;48.766;9.176;2024-03-22T01:56:41;13.45;;;9.77;;
49610;SDS011;35515;48.766;9.176;2024-03-22T01:59:09;14.55;;;9.82;;
49610;SDS011;35515;48.766;9.176;2024-03-22T02:01:35;14.10;;;9.65;;
49610;SDS011;35515;48.766;9.176;2024-03-22T02:04:02;13.75;;;9.18;;
49610;SDS011;35515;48.766;9.176;2024-03-22T02:06:28;12.63;;;9.25;;
49610;SDS011;35515;48.766;9.176;2024-03-22T02:08:55;14.20;;;9.40;;
49610;SDS011;35515;48.766;9.176;2024-03-22T02:11:21;11.68;;;9.20;;
49610;SDS011;35515;48.766;9.176;2024-03-22T02:13:48;14.20;;;9.73;;
49610;SDS011;35515;48.766;9.176;2024-03-22T02:16:15;16.85;;;10.80;;
49610;SDS011;35515;48.766;9.176;2024-03-22T02:18:42;14.35;;;9.63;;
49610;SDS011;35515;48.766;9.176;2024-03-22T02:21:09;15.40;;;9.52;;
49610;SDS011;35515;48.766;9.176;2024-03-22T02:23:37;14.02;;;9.63;;
49610;SDS011;35515;48.766;9.176;2024-03-22T02:26:05;16.00;;;9.70;;
49610;SDS011;35515;48.766;9.176;2024-03-22T02:28:32;13.43;;;9.38;;
49610;SDS011;35515;48.766;9.176;2024-03-22T02:30:59;12.88;;;9.88;;
49610;SDS011;35515;48.766;9.176;2024-03-22T02:33:25;15.88;;;10.52;;
49610;SDS011;35515;48.766;9.176;2024-03-22T02:35:51;14.60;;;9.88;;
49610;SDS011;35515;48.766;9.176;2024-03-22T02:38:18;13.60;;;9.30;;
49610;SDS011;35515;48.766;9.176;2024-03-22T02:40:45;12.65;;;9.40;;
49610;SDS011;35515;48.766;9.176;2024-03-22T02:43:13;13.07;;;10.00;;
49610;SDS011;35515;48.766;9.176;2024-03-22T02:45:38;12.32;;;9.15;;
49610;SDS011;35515;48.766;9.176;2024-03-22T02:48:05;14.13;;;9.80;;
49610;SDS011;35515;48.766;9.176;2024-03-22T02:50:32;13.75;;;9.43;;
49610;SDS011;35515;48.766;9.176;2024-03-22T02:52:59;14.32;;;9.82;;
49610;SDS011;35515;48.766;9.176;2024-03-22T02:55:24;11.38;;;8.98;;
49610;SDS011;35515;48.766;9.176;2024-03-22T02:57:52;14.65;;;10.25;;
49610;SDS011;35515;48.766;9.176;2024-03-22T03:00:18;15.32;;;10.00;;
49610;SDS011;35515;48.766;9.176;2024-03-22T03:02:45;14.65;;;9.63;;
49610;SDS011;35515;48.766;9.176;2024-03-22T03:05:11;13.50;;;9.30;;
49610;SDS011;35515;48.766;9.176;2024-03-22T03:07:37;16.02;;;10.23;;
49610;SDS011;35515;48.766;9.176;2024-03-22T03:10:03;14.55;;;9.70;;
49610;SDS011;35515;48.766;9.176;2024-03-22T03:12:30;15.48;;;10.18;;
49610;SDS011;35515;48.766;9.176;2024-03-22T03:14:57;15.07;;;8.73;;
49610;SDS011;35515;48.766;9.176;2024-03-22T03:17:23;14.45;;;9.27;;
49610;SDS011;35515;48.766;9.176;2024-03-22T03:19:49;13.57;;;9.60;;
49610;SDS011;35515;48.766;9.176;2024-03-22T03:22:16;17.05;;;9.75;;
49610;SDS011;35515;48.766;9.176;2024-03-22T03:24:41;15.48;;;9.90;;
49610;SDS011;35515;48.766;9.176;2024-03-22T03:27:08;18.85;;;10.50;;
49610;SDS011;35515;48.766;9.176;2024-03-22T03:29:33;14.50;;;9.82;;
49610;SDS011;35515;48.766;9.176;2024-03-22T03:32:01;13.93;;;9.95;;
49610;SDS011;35515;48.766;9.176;2024-03-22T03:34:26;14.23;;;9.55;;
49610;SDS011;35515;48.766;9.176;2024-03-22T03:36:53;13.80;;;9.90;;
49610;SDS011;35515;48.766;9.176;2024-03-22T03:39:19;15.63;;;10.45;;
49610;SDS011;35515;48.766;9.176;2024-03-22T03:41:45;13.85;;;9.07;;
49610;SDS011;35515;48.766;9.176;2024-03-22T03:44:11;15.30;;;10.13;;
49610;SDS011;35515;48.766;9.176;2024-03-22T03:46:37;13.55;;;9.45;;
49610;SDS011;35515;48.766;9.176;2024-03-22T03:49:04;15.30;;;9.82;;
49610;SDS011;35515;48.766;9.176;2024-03-22T03:51:31;15.77;;;9.85;;
49610;SDS011;35515;48.766;9.176;2024-03-22T03:53:56;13.73;;;9.68;;
49610;SDS011;35515;48.766;9.176;2024-03-22T03:56:23;13.52;;;9.25;;
49610;SDS011;35515;48.766;9.176;2024-03-22T03:58:48;14.63;;;9.88;;
49610;SDS011;35515;48.766;9.176;2024-03-22T04:01:16;13.48;;;9.60;;
49610;SDS011;35515;48.766;9.176;2024-03-22T04:03:43;13.25;;;9.45;;
49610;SDS011;35515;48.766;9.176;2024-03-22T04:06:11;12.27;;;9.68;;
49610;SDS011;35515;48.766;9.176;2024-03-22T04:08:36;14.77;;;10.32;;
49610;SDS011;35515;48.766;9.176;2024-03-22T04:11:03;13.27;;;9.10;;
49610;SDS011;35515;48.766;9.176;2024-03-22T04:13:29;15.77;;;10.75;;
49610;SDS011;35515;48.766;9.176;2024-03-22T04:15:58;15.85;;;9.63;;
49610;SDS011;35515;48.766;9.176;2024-03-22T04:18:24;13.30;;;9.20;;
49610;SDS011;35515;48.766;9.176;2024-03-22T04:20:55;14.55;;;10.15;;
49610;SDS011;35515;48.766;9.176;2024-03-22T04:23:22;12.48;;;8.88;;
49610;SDS011;35515;48.766;9.176;2024-03-22T04:25:53;15.52;;;9.93;;
49610;SDS011;35515;48.766;9.176;2024-03-22T04:28:19;13.55;;;9.00;;
49610;SDS011;35515;48.766;9.176;2024-03-22T04:30:53;13.85;;;9.15;;
49610;SDS011;35515;48.766;9.176;2024-03-22T04:33:21;14.68;;;8.68;;
49610;SDS011;35515;48.766;9.176;2024-03-22T04:35:48;14.38;;;9.13;;
49610;SDS011;35515;48.766;9.176;2024-03-22T04:38:13;13.93;;;9.43;;
49610;SDS011;35515;48.766;9.176;2024-03-22T04:40:41;13.27;;;8.98;;
49610;SDS011;35515;48.766;9.176;2024-03-22T04:43:08;13.90;;;9.02;;
49610;SDS011;35515;48.766;9.176;2024-03-22T04:45:34;12.65;;;9.07;;
49610;SDS011;35515;48.766;9.176;2024-03-22T04:48:00;12.05;;;8.70;;
49610;SDS011;35515;48.766;9.176;2024-03-22T04:50:27;12.75;;;8.07;;
49610;SDS011;35515;48.766;9.176;2024-03-22T04:52:53;12.73;;;8.98;;
49610;SDS011;35515;48.766;9.176;2024-03-22T04:55:19;17.02;;;9.73;;
49610;SDS011;35515;48.766;9.176;2024-03-22T04:57:46;12.23;;;8.68;;
49610;SDS011;35515;48.766;9.176;2024-03-22T05:00:13;13.57;;;8.93;;
49610;SDS011;35515;48.766;9.176;2024-03-22T05:02:40;15.25;;;8.77;;
49610;SDS011;35515;48.766;9.176;2024-03-22T05:05:06;9.55;;;7.57;;
49610;SDS011;35515;48.766;9.176;2024-03-22T05:07:32;14.50;;;8.23;;
49610;SDS011;35515;48.766;9.176;2024-03-22T05:09:59;11.30;;;7.82;;
49610;SDS011;35515;48.766;9.176;2024-03-22T05:12:25;12.05;;;7.82;;
49610;SDS011;35515;48.766;9.176;2024-03-22T05:14:53;15.00;;;8.13;;
49610;SDS011;35515;48.766;9.176;2024-03-22T05:17:18;10.68;;;8.15;;
49610;SDS011;35515;48.766;9.176;2024-03-22T05:19:45;13.70;;;7.93;;
49610;SDS011;35515;48.766;9.176;2024-03-22T05:22:10;11.82;;;7.90;;
49610;SDS011;35515;48.766;9.176;2024-03-22T05:24:37;10.10;;;7.63;;
49610;SDS011;35515;48.766;9.176;2024-03-22T05:27:02;10.48;;;7.45;;
49610;SDS011;35515;48.766;9.176;2024-03-22T05:29:29;11.43;;;7.90;;
49610;SDS011;35515;48.766;9.176;2024-03-22T05:31:56;10.57;;;7.45;;
49610;SDS011;35515;48.766;9.176;2024-03-22T05:34:23;10.43;;;7.35;;
49610;SDS011;35515;48.766;9.176;2024-03-22T05:36:48;10.82;;;7.53;;
49610;SDS011;35515;48.766;9.176;2024-03-22T05:39:15;11.15;;;7.57;;
49610;SDS011;35515;48.766;9.176;2024-03-22T05:41:41;11.73;;;7.38;;
49610;SDS011;35515;48.766;9.176;2024-03-22T05:44:08;11.80;;;7.75;;
49610;SDS011;35515;48.766;9.176;2024-03-22T05:46:33;11.90;;;8.07;;
49610;SDS011;35515;48.766;9.176;2024-03-22T05:49:01;11.70;;;8.18;;
49610;SDS011;35515;48.766;9.176;2024-03-22T05:51:27;12.30;;;8.07;;
49610;SDS011;35515;48.766;9.176;2024-03-22T05:53:55;11.52;;;7.93;;
49610;SDS011;35515;48.766;9.176;2024-03-22T05:56:20;12.18;;;8.40;;
49610;SDS011;35515;48.766;9.176;2024-03-22T05:58:47;12.68;;;8.13;;
49610;SDS011;35515;48.766;9.176;2024-03-22T06:01:12;11.50;;;8.45;;
49610;SDS011;35515;48.766;9.176;2024-03-22T06:03:39;12.75;;;8.15;;
49610;SDS011;35515;48.766;9.176;2024-03-22T06:06:06;10.20;;;7.60;;
49610;SDS011;35515;48.766;9.176;2024-03-22T06:08:33;10.43;;;8.45;;
49610;SDS011;35515;48.766;9.176;2024-03-22T06:10:59;11.35;;;8.48;;
49610;SDS011;35515;48.766;9.176;2024-03-22T06:13:26;10.77;;;7.85;;
49610;SDS011;35515;48.766;9.176;2024-03-22T06:15:52;11.02;;;7.75;;
49610;SDS011;35515;48.766;9.176;2024-03-22T06:18:19;11.18;;;7.88;;
49610;SDS011;35515;48.766;9.176;2024-03-22T06:20:45;13.07;;;8.30;;
49610;SDS011;35515;48.766;9.176;2024-03-22T06:23:13;12.13;;;8.70;;
49610;SDS011;35515;48.766;9.176;2024-03-22T06:25:38;14.70;;;8.25;;
49610;SDS011;35515;48.766;9.176;2024-03-22T06:28:05;11.80;;;7.88;;
49610;SDS011;35515;48.766;9.176;2024-03-22T06:30:30;16.40;;;8.88;;
49610;SDS011;35515;48.766;9.176;2024-03-22T06:32:57;13.40;;;8.57;;
49610;SDS011;35515;48.766;9.176;2024-03-22T06:35:23;13.20;;;8.32;;
49610;SDS011;35515;48.766;9.176;2024-03-22T06:37:49;13.88;;;8.50;;
49610;SDS011;35515;48.766;9.176;2024-03-22T06:40:16;11.75;;;7.95;;
49610;SDS011;35515;48.766;9.176;2024-03-22T06:42:43;12.00;;;8.55;;
49610;SDS011;35515;48.766;9.176;2024-03-22T06:45:09;15.05;;;9.07;;
49610;SDS011;35515;48.766;9.176;2024-03-22T06:47:35;14.73;;;9.98;;
49610;SDS011;35515;48.766;9.176;2024-03-22T06:50:01;13.63;;;9.13;;
49610;SDS011;35515;48.766;9.176;2024-03-22T06:52:27;16.08;;;9.15;;
49610;SDS011;35515;48.766;9.176;2024-03-22T06:54:53;13.13;;;8.45;;
49610;SDS011;35515;48.766;9.176;2024-03-22T06:57:21;12.68;;;8.27;;
49610;SDS011;35515;48.766;9.176;2024-03-22T06:59:47;16.30;;;9.43;;
49610;SDS011;35515;48.766;9.176;2024-03-22T07:02:13;14.25;;;9.63;;
49610;SDS011;35515;48.766;9.176;2024-03-22T07:04:39;13.23;;;9.48;;
49610;SDS011;35515;48.766;9.176;2024-03-22T07:07:05;13.57;;;8.75;;
49610;SDS011;35515;48.766;9.176;2024-03-22T07:09:32;15.98;;;9.07;;
49610;SDS011;35515;48.766;9.176;2024-03-22T07:11:59;13.55;;;9.85;;
49610;SDS011;35515;48.766;9.176;2024-03-22T07:14:26;14.10;;;9.38;;
49610;SDS011;35515;48.766;9.176;2024-03-22T07:16:53;14.02;;;9.43;;
49610;SDS011;35515;48.766;9.176;2024-03-22T07:19:19;12.15;;;8.73;;
49610;SDS011;35515;48.766;9.176;2024-03-22T07:21:45;16.73;;;10.57;;
49610;SDS011;35515;48.766;9.176;2024-03-22T07:24:11;14.57;;;10.02;;
49610;SDS011;35515;48.766;9.176;2024-03-22T07:26:37;20.35;;;10.90;;
49610;SDS011;35515;48.766;9.176;2024-03-22T07:29:03;15.18;;;9.60;;
49610;SDS011;35515;48.766;9.176;2024-03-22T07:31:31;13.32;;;9.05;;
49610;SDS011;35515;48.766;9.176;2024-03-22T07:33:57;16.27;;;10.05;;
49610;SDS011;35515;48.766;9.176;2024-03-22T07:36:23;14.07;;;10.25;;
49610;SDS011;35515;48.766;9.176;2024-03-22T07:38:49;15.18;;;9.98;;
49610;SDS011;35515;48.766;9.176;2024-03-22T07:41:15;17.73;;;10.85;;
49610;SDS011;35515;48.766;9.176;2024-03-22T07:43:41;18.13;;;10.95;;
49610;SDS011;35515;48.766;9.176;2024-03-22T07:46:07;18.63;;;12.23;;
49610;SDS011;35515;48.766;9.176;2024-03-22T07:48:34;16.85;;;10.90;;
49610;SDS011;35515;48.766;9.176;2024-03-22T07:51:01;15.00;;;9.98;;
49610;SDS011;35515;48.766;9.176;2024-03-22T07:53:27;15.75;;;10.10;;
49610;SDS011;35515;48.766;9.176;2024-03-22T07:55:53;16.20;;;9.90;;
49610;SDS011;35515;48.766;9.176;2024-03-22T07:58:19;14.40;;;9.05;;
49610;SDS011;35515;48.766;9.176;2024-03-22T08:00:46;15.50;;;9.90;;
49610;SDS011;35515;48.766;9.176;2024-03-22T08:03:13;18.27;;;10.07;;
49610;SDS011;35515;48.766;9.176;2024-03-22T08:05:42;21.88;;;10.18;;
49610;SDS011;35515;48.766;9.176;2024-03-22T08:08:08;14.77;;;9.38;;
49610;SDS011;35515;48.766;9.176;2024-03-22T08:10:35;10.98;;;8.20;;
49610;SDS011;35515;48.766;9.176;2024-03-22T08:13:00;13.85;;;8.15;;
49610;SDS011;35515;48.766;9.176;2024-03-22T08:15:27;10.80;;;7.43;;
49610;SDS011;35515;48.766;9.176;2024-03-22T08:17:52;15.90;;;8.90;;
49610;SDS011;35515;48.766;9.176;2024-03-22T08:20:19;16.13;;;9.75;;
49610;SDS011;35515;48.766;9.176;2024-03-22T08:22:46;14.13;;;9.43;;
49610;SDS011;35515;48.766;9.176;2024-03-22T08:25:13;10.65;;;7.10;;
49610;SDS011;35515;48.766;9.176;2024-03-22T08:27:42;16.23;;;7.93;;
49610;SDS011;35515;48.766;9.176;2024-03-22T08:30:09;12.00;;;7.72;;
49610;SDS011;35515;48.766;9.176;2024-03-22T08:32:35;12.02;;;7.78;;
49610;SDS011;35515;48.766;9.176;2024-03-22T08:35:02;9.55;;;7.05;;
49610;SDS011;35515;48.766;9.176;2024-03-22T08:37:29;11.48;;;6.72;;
49610;SDS011;35515;48.766;9.176;2024-03-22T08:39:57;8.95;;;5.60;;
49610;SDS011;35515;48.766;9.176;2024-03-22T08:42:22;8.32;;;5.75;;
49610;SDS011;35515;48.766;9.176;2024-03-22T08:44:49;8.60;;;5.40;;
49610;SDS011;35515;48.766;9.176;2024-03-22T08:47:14;10.80;;;6.57;;
49610;SDS011;35515;48.766;9.176;2024-03-22T08:49:41;11.80;;;5.40;;
49610;SDS011;35515;48.766;9.176;2024-03-22T08:52:08;7.25;;;5.03;;
49610;SDS011;35515;48.766;9.176;2024-03-22T08:54:35;10.18;;;5.30;;
49610;SDS011;35515;48.766;9.176;2024-03-22T08:57:02;7.97;;;5.75;;
49610;SDS011;35515;48.766;9.176;2024-03-22T08:59:29;13.55;;;5.82;;
49610;SDS011;35515;48.766;9.176;2024-03-22T09:01:54;9.52;;;5.72;;
49610;SDS011;35515;48.766;9.176;2024-03-22T09:04:21;11.63;;;6.22;;
49610;SDS011;35515;48.766;9.176;2024-03-22T09:06:46;7.85;;;5.30;;
49610;SDS011;35515;48.766;9.176;2024-03-22T09:09:13;9.10;;;5.93;;
49610;SDS011;35515;48.766;9.176;2024-03-22T09:11:38;6.82;;;4.40;;
49610;SDS011;35515;48.766;9.176;2024-03-22T09:14:06;7.13;;;4.75;;
49610;SDS011;35515;48.766;9.176;2024-03-22T09:16:32;7.88;;;5.10;;
49610;SDS011;35515;48.766;9.176;2024-03-22T09:18:59;9.35;;;5.47;;
49610;SDS011;35515;48.766;9.176;2024-03-22T09:21:25;6.90;;;4.90;;
49610;SDS011;35515;48.766;9.176;2024-03-22T09:23:51;8.07;;;4.70;;
49610;SDS011;35515;48.766;9.176;2024-03-22T09:26:17;9.85;;;5.10;;
49610;SDS011;35515;48.766;9.176;2024-03-22T09:28:45;6.70;;;4.50;;
49610;SDS011;35515;48.766;9.176;2024-03-22T09:31:12;7.18;;;4.32;;
49610;SDS011;35515;48.766;9.176;2024-03-22T09:33:39;5.75;;;4.20;;
49610;SDS011;35515;48.766;9.176;2024-03-22T09:36:04;6.38;;;3.47;;
49610;SDS011;35515;48.766;9.176;2024-03-22T09:38:31;7.22;;;3.90;;
49610;SDS011;35515;48.766;9.176;2024-03-22T09:40:57;5.78;;;3.95;;
49610;SDS011;35515;48.766;9.176;2024-03-22T09:43:24;5.07;;;3.53;;
49610;SDS011;35515;48.766;9.176;2024-03-22T09:45:52;5.68;;;3.60;;
49610;SDS011;35515;48.766;9.176;2024-03-22T09:48:21;6.25;;;3.22;;
49610;SDS011;35515;48.766;9.176;2024-03-22T09:50:48;6.32;;;3.78;;
49610;SDS011;35515;48.766;9.176;2024-03-22T09:53:17;6.10;;;3.53;;
49610;SDS011;35515;48.766;9.176;2024-03-22T09:55:44;6.57;;;3.60;;
49610;SDS011;35515;48.766;9.176;2024-03-22T09:58:13;5.80;;;3.40;;
49610;SDS011;35515;48.766;9.176;2024-03-22T10:00:38;5.57;;;3.08;;
49610;SDS011;35515;48.766;9.176;2024-03-22T10:03:05;7.53;;;4.05;;
49610;SDS011;35515;48.766;9.176;2024-03-22T10:05:34;5.72;;;3.20;;
49610;SDS011;35515;48.766;9.176;2024-03-22T10:08:01;6.93;;;3.70;;
49610;SDS011;35515;48.766;9.176;2024-03-22T10:10:27;5.60;;;3.85;;
49610;SDS011;35515;48.766;9.176;2024-03-22T10:12:54;5.40;;;3.63;;
49610;SDS011;35515;48.766;9.176;2024-03-22T10:15:19;8.40;;;3.88;;
49610;SDS011;35515;48.766;9.176;2024-03-22T10:17:46;8.60;;;4.13;;
49610;SDS011;35515;48.766;9.176;2024-03-22T10:20:12;7.18;;;3.63;;
49610;SDS011;35515;48.766;9.176;2024-03-22T10:22:42;5.20;;;3.75;;
49610;SDS011;35515;48.766;9.176;2024-03-22T10:25:08;7.63;;;4.03;;
49610;SDS011;35515;48.766;9.176;2024-03-22T10:27:37;8.43;;;3.78;;
49610;SDS011;35515;48.766;9.176;2024-03-22T10:30:04;8.32;;;3.95;;
49610;SDS011;35515;48.766;9.176;2024-03-22T10:32:35;5.43;;;3.85;;
49610;SDS011;35515;48.766;9.176;2024-03-22T10:35:01;6.75;;;3.55;;
49610;SDS011;35515;48.766;9.176;2024-03-22T10:37:30;5.57;;;3.55;;
49610;SDS011;35515;48.766;9.176;2024-03-22T10:39:58;8.43;;;3.55;;
49610;SDS011;35515;48.766;9.176;2024-03-22T10:42:32;8.13;;;3.38;;
49610;SDS011;35515;48.766;9.176;2024-03-22T10:44:58;7.43;;;3.72;;
49610;SDS011;35515;48.766;9.176;2024-03-22T10:47:24;7.38;;;4.32;;
49610;SDS011;35515;48.766;9.176;2024-03-22T10:49:55;7.68;;;3.47;;
49610;SDS011;35515;48.766;9.176;2024-03-22T10:52:30;6.15;;;3.40;;
49610;SDS011;35515;48.766;9.176;2024-03-22T10:55:00;12.15;;;4.82;;
49610;SDS011;35515;48.766;9.176;2024-03-22T10:57:29;7.75;;;3.55;;
49610;SDS011;35515;48.766;9.176;2024-03-22T10:59:56;9.55;;;4.00;;
49610;SDS011;35515;48.766;9.176;2024-03-22T11:02:23;6.50;;;3.30;;
49610;SDS011;35515;48.766;9.176;2024-03-22T11:04:53;5.47;;;3.63;;
49610;SDS011;35515;48.766;9.176;2024-03-22T11:07:22;5.88;;;3.47;;
49610;SDS011;35515;48.766;9.176;2024-03-22T11:09:51;6.32;;;3.50;;
49610;SDS011;35515;48.766;9.176;2024-03-22T11:12:19;8.52;;;3.78;;
49610;SDS011;35515;48.766;9.176;2024-03-22T11:14:45;8.05;;;3.95;;
49610;SDS011;35515;48.766;9.176;2024-03-22T11:17:12;6.28;;;3.55;;
49610;SDS011;35515;48.766;9.176;2024-03-22T11:19:38;8.23;;;4.60;;
49610;SDS011;35515;48.766;9.176;2024-03-22T11:22:05;8.65;;;4.38;;
49610;SDS011;35515;48.766;9.176;2024-03-22T11:24:32;8.70;;;4.43;;
49610;SDS011;35515;48.766;9.176;2024-03-22T11:26:59;6.72;;;4.40;;
49610;SDS011;35515;48.766;9.176;2024-03-22T11:29:26;6.18;;;3.58;;
49610;SDS011;35515;48.766;9.176;2024-03-22T11:31:52;5.70;;;3.63;;
49610;SDS011;35515;48.766;9.176;2024-03-22T11:34:18;8.75;;;3.58;;
49610;SDS011;35515;48.766;9.176;2024-03-22T11:36:45;4.18;;;3.25;;
49610;SDS011;35515;48.766;9.176;2024-03-22T11:39:11;7.10;;;3.22;;
49610;SDS011;35515;48.766;9.176;2024-03-22T11:41:38;7.43;;;3.35;;
49610;SDS011;35515;48.766;9.176;2024-03-22T11:44:04;9.00;;;5.47;;
49610;SDS011;35515;48.766;9.176;2024-03-22T11:46:35;5.63;;;2.65;;
49610;SDS011;35515;48.766;9.176;2024-03-22T11:49:00;5.63;;;3.28;;
49610;SDS011;35515;48.766;9.176;2024-03-22T11:51:27;4.95;;;2.38;;
49610;SDS011;35515;48.766;9.176;2024-03-22T11:53:53;3.90;;;2.30;;
49610;SDS011;35515;48.766;9.176;2024-03-22T11:56:22;5.93;;;2.60;;
49610;SDS011;35515;48.766;9.176;2024-03-22T11:58:57;6.65;;;2.80;;
49610;SDS011;35515;48.766;9.176;2024-03-22T12:01:25;7.70;;;2.38;;
49610;SDS011;35515;48.766;9.176;2024-03-22T12:03:52;5.10;;;3.20;;
49610;SDS011;35515;48.766;9.176;2024-03-22T12:06:20;5.65;;;3.38;;
49610;SDS011;35515;48.766;9.176;2024-03-22T12:08:46;9.40;;;3.80;;
49610;SDS011;35515;48.766;9.176;2024-03-22T12:11:12;7.03;;;4.05;;
49610;SDS011;35515;48.766;9.176;2024-03-22T12:13:39;8.75;;;3.95;;
49610;SDS011;35515;48.766;9.176;2024-03-22T12:16:05;5.72;;;3.88;;
49610;SDS011;35515;48.766;9.176;2024-03-22T12:18:32;5.30;;;3.85;;
49610;SDS011;35515;48.766;9.176;2024-03-22T12:21:00;6.32;;;4.00;;
49610;SDS011;35515;48.766;9.176;2024-03-22T12:23:26;6.25;;;4.35;;
49610;SDS011;35515;48.766;9.176;2024-03-22T12:25:53;10.30;;;5.53;;
49610;SDS011;35515;48.766;9.176;2024-03-22T12:28:20;8.00;;;5.13;;
49610;SDS011;35515;48.766;9.176;2024-03-22T12:30:47;5.10;;;3.50;;
49610;SDS011;35515;48.766;9.176;2024-03-22T12:33:13;4.95;;;2.60;;
49610;SDS011;35515;48.766;9.176;2024-03-22T12:35:40;3.65;;;2.05;;
49610;SDS011;35515;48.766;9.176;2024-03-22T12:38:07;23.75;;;13.85;;
49610;SDS011;35515;48.766;9.176;2024-03-22T12:40:35;8.43;;;5.05;;
49610;SDS011;35515;48.766;9.176;2024-03-22T12:43:01;5.50;;;2.10;;
49610;SDS011;35515;48.766;9.176;2024-03-22T12:45:28;4.05;;;2.35;;
49610;SDS011;35515;48.766;9.176;2024-03-22T12:47:54;4.47;;;2.35;;
49610;SDS011;35515;48.766;9.176;2024-03-22T12:50:20;5.53;;;3.15;;
49610;SDS011;35515;48.766;9.176;2024-03-22T12:52:46;3.20;;;2.10;;
49610;SDS011;35515;48.766;9.176;2024-03-22T12:55:14;5.38;;;2.50;;
49610;SDS011;35515;48.766;9.176;2024-03-22T12:57:39;3.28;;;2.22;;
49610;SDS011;35515;48.766;9.176;2024-03-22T13:00:06;3.92;;;2.38;;
49610;SDS011;35515;48.766;9.176;2024-03-22T13:02:37;3.35;;;2.13;;
49610;SDS011;35515;48.766;9.176;2024-03-22T13:05:05;3.75;;;2.17;;
49610;SDS011;35515;48.766;9.176;2024-03-22T13:07:31;5.40;;;2.25;;
49610;SDS011;35515;48.766;9.176;2024-03-22T13:09:58;4.68;;;2.30;;
49610;SDS011;35515;48.766;9.176;2024-03-22T13:12:26;4.60;;;2.30;;
49610;SDS011;35515;48.766;9.176;2024-03-22T13:14:56;5.95;;;2.50;;
49610;SDS011;35515;48.766;9.176;2024-03-22T13:17:21;5.18;;;2.63;;
49610;SDS011;35515;48.766;9.176;2024-03-22T13:19:48;5.40;;;2.50;;
49610;SDS011;35515;48.766;9.176;2024-03-22T13:22:14;3.58;;;2.60;;
49610;SDS011;35515;48.766;9.176;2024-03-22T13:24:43;4.07;;;2.65;;
49610;SDS011;35515;48.766;9.176;2024-03-22T13:27:08;4.35;;;2.65;;
49610;SDS011;35515;48.766;9.176;2024-03-22T13:29:36;4.10;;;2.72;;
49610;SDS011;35515;48.766;9.176;2024-03-22T13:32:03;3.80;;;3.13;;
49610;SDS011;35515;48.766;9.176;2024-03-22T13:34:30;7.13;;;3.65;;
49610;SDS011;35515;48.766;9.176;2024-03-22T13:36:57;4.53;;;3.05;;
49610;SDS011;35515;48.766;9.176;2024-03-22T13:39:22;5.43;;;3.17;;
49610;SDS011;35515;48.766;9.176;2024-03-22T13:41:49;4.95;;;3.05;;
49610;SDS011;35515;48.766;9.176;2024-03-22T13:44:14;5.88;;;4.45;;
49610;SDS011;35515;48.766;9.176;2024-03-22T13:46:42;4.97;;;2.60;;
49610;SDS011;35515;48.766;9.176;2024-03-22T13:49:12;7.82;;;3.10;;
49610;SDS011;35515;48.766;9.176;2024-03-22T13:51:42;5.47;;;2.75;;
49610;SDS011;35515;48.766;9.176;2024-03-22T13:54:07;4.00;;;2.70;;
49610;SDS011;35515;48.766;9.176;2024-03-22T13:56:34;4.43;;;2.67;;
49610;SDS011;35515;48.766;9.176;2024-03-22T13:58:59;6.47;;;2.90;;
49610;SDS011;35515;48.766;9.176;2024-03-22T14:01:26;3.65;;;2.67;;
49610;SDS011;35515;48.766;9.176;2024-03-22T14:03:53;4.57;;;2.38;;
49610;SDS011;35515;48.766;9.176;2024-03-22T14:06:20;6.40;;;2.85;;
49610;SDS011;35515;48.766;9.176;2024-03-22T14:08:46;10.00;;;3.30;;
49610;SDS011;35515;48.766;9.176;2024-03-22T14:11:12;4.13;;;3.00;;
49610;SDS011;35515;48.766;9.176;2024-03-22T14:13:38;10.45;;;4.32;;
49610;SDS011;35515;48.766;9.176;2024-03-22T14:16:04;8.50;;;3.03;;
49610;SDS011;35515;48.766;9.176;2024-03-22T14:18:32;4.55;;;2.97;;
49610;SDS011;35515;48.766;9.176;2024-03-22T14:21:01;7.63;;;3.05;;
49610;SDS011;35515;48.766;9.176;2024-03-22T14:23:27;7.38;;;3.35;;
49610;SDS011;35515;48.766;9.176;2024-03-22T14:25:55;8.00;;;3.30;;
49610;SDS011;35515;48.766;9.176;2024-03-22T14:28:20;9.93;;;3.40;;
49610;SDS011;35515;48.766;9.176;2024-03-22T14:30:48;9.38;;;4.32;;
49610;SDS011;35515;48.766;9.176;2024-03-22T14:33:14;7.60;;;3.83;;
49610;SDS011;35515;48.766;9.176;2024-03-22T14:35:40;7.55;;;3.78;;